Time;durP1;ratioP1;P1;durP2;ratioP2;P2;SDS_P1;SDS_P2;PMS_P1;PMS_P2;Temp;Humidity;BMP_temperature;BMP_pressure;BME280_temperature;BME280_humidity;BME280_pressure;Samples;Min_cycle;Max_cycle;Signal;HPM_P1;HPM_P2
2022/03/20 00:02:17;;;;;;;25.93;21.63;;;;;;;;;;4963670;28;24556;-52
2022/03/20 00:04:42;;;;;;;27.52;21.65;;;;;;;;;;4967665;28;24510;-51
2022/03/20 00:07:11;;;;;;;23.35;20.08;;;;;;;;;;4963564;28;24433;-50
2022/03/20 00:09:36;;;;;;;23.58;20.13;;;;;;;;;;4967154;28;24569;-49
2022/03/20 00:12:01;;;;;;;23.38;20.73;;;;;;;;;;4955385;28;24528;-50
2022/03/20 00:14:26;;;;;;;27.53;21.70;;;;;;;;;;4966957;28;24429;-49
2022/03/20 00:16:51;;;;;;;24.90;20.98;;;;;;;;;;4962512;28;24509;-50
2022/03/20 00:19:17;;;;;;;24.63;20.80;;;;;;;;;;4966312;28;24429;-51
2022/03/20 00:21:42;;;;;;;23.20;19.65;;;;;;;;;;4968092;28;24420;-51
2022/03/20 00:24:07;;;;;;;25.73;21.23;;;;;;;;;;4964460;28;24449;-50
2022/03/20 00:26:33;;;;;;;26.70;21.07;;;;;;;;;;4962531;28;24418;-50
2022/03/20 00:28:59;;;;;;;23.83;19.83;;;;;;;;;;4965034;28;24476;-50
2022/03/20 00:31:25;;;;;;;24.90;21.02;;;;;;;;;;4968342;28;24967;-51
2022/03/20 00:33:50;;;;;;;27.00;20.73;;;;;;;;;;4962152;28;24430;-51
2022/03/20 00:36:15;;;;;;;27.27;21.50;;;;;;;;;;4959076;28;24507;-50
2022/03/20 00:38:41;;;;;;;24.33;20.40;;;;;;;;;;4954223;28;24427;-50
2022/03/20 00:41:06;;;;;;;25.87;20.70;;;;;;;;;;4960585;28;24421;-50
2022/03/20 00:43:31;;;;;;;21.98;19.55;;;;;;;;;;4958235;28;24974;-50
2022/03/20 00:45:56;;;;;;;23.08;20.45;;;;;;;;;;4951661;28;24453;-50
2022/03/20 00:48:21;;;;;;;23.73;21.00;;;;;;;;;;4964700;28;24430;-51
2022/03/20 00:50:47;;;;;;;22.53;20.13;;;;;;;;;;4963030;28;24486;-51
2022/03/20 00:53:12;;;;;;;23.07;20.60;;;;;;;;;;4950462;28;24410;-51
2022/03/20 00:55:37;;;;;;;24.83;21.30;;;;;;;;;;4969200;28;24426;-50
2022/03/20 00:58:02;;;;;;;23.20;20.75;;;;;;;;;;4961758;28;24414;-52
2022/03/20 01:00:27;;;;;;;22.48;20.27;;;;;;;;;;4958763;28;24419;-50
2022/03/20 01:02:52;;;;;;;22.03;19.60;;;;;;;;;;4966997;28;26254;-50
2022/03/20 01:05:18;;;;;;;24.53;20.90;;;;;;;;;;4955371;28;24509;-50
2022/03/20 01:07:43;;;;;;;23.10;20.20;;;;;;;;;;4964600;28;24456;-51
2022/03/20 01:10:08;;;;;;;22.53;20.23;;;;;;;;;;4958156;28;24986;-51
2022/03/20 01:12:34;;;;;;;23.57;20.40;;;;;;;;;;4962446;28;24444;-51
2022/03/20 01:15:00;;;;;;;24.42;19.92;;;;;;;;;;4957973;28;24532;-51
2022/03/20 01:17:25;;;;;;;22.33;19.92;;;;;;;;;;4962839;28;24493;-51
2022/03/20 01:19:51;;;;;;;20.40;18.30;;;;;;;;;;4961710;28;24425;-51
2022/03/20 01:22:16;;;;;;;22.10;19.80;;;;;;;;;;4955739;28;24792;-50
2022/03/20 01:24:41;;;;;;;22.00;18.87;;;;;;;;;;4960045;28;24833;-51
2022/03/20 01:27:07;;;;;;;23.00;17.50;;;;;;;;;;4966621;28;24414;-50
2022/03/20 01:29:34;;;;;;;20.85;17.58;;;;;;;;;;4968240;28;24857;-50
2022/03/20 01:31:59;;;;;;;24.02;17.45;;;;;;;;;;4961449;28;24465;-51
2022/03/20 01:34:26;;;;;;;22.13;17.55;;;;;;;;;;4955336;28;24450;-51
2022/03/20 01:36:52;;;;;;;20.48;16.50;;;;;;;;;;4957531;28;24521;-51
2022/03/20 01:39:17;;;;;;;20.60;16.70;;;;;;;;;;4960758;28;24542;-51
2022/03/20 01:41:46;;;;;;;21.48;17.20;;;;;;;;;;4959123;28;24418;-51
2022/03/20 01:44:11;;;;;;;17.95;15.23;;;;;;;;;;4964711;28;24523;-51
2022/03/20 01:46:36;;;;;;;19.05;16.45;;;;;;;;;;4967416;28;25032;-51
2022/03/20 01:49:01;;;;;;;20.75;15.98;;;;;;;;;;4964647;28;24445;-51
2022/03/20 01:54:11;;;;;;;21.08;16.85;;;;;;;;;;4954696;28;24433;-50
2022/03/20 01:56:36;;;;;;;21.17;17.55;;;;;;;;;;4955452;28;24621;-51
2022/03/20 01:59:03;;;;;;;22.90;18.50;;;;;;;;;;4960515;28;24476;-51
2022/03/20 02:01:28;;;;;;;22.70;18.40;;;;;;;;;;4960927;28;24504;-51
2022/03/20 02:03:54;;;;;;;22.80;18.35;;;;;;;;;;4955636;28;24817;-51
2022/03/20 02:06:19;;;;;;;21.92;18.55;;;;;;;;;;4951206;28;24485;-51
2022/03/20 02:08:44;;;;;;;21.30;18.63;;;;;;;;;;4963048;28;24862;-51
2022/03/20 02:11:09;;;;;;;24.33;19.33;;;;;;;;;;4963867;28;24488;-51
2022/03/20 02:13:34;;;;;;;24.23;18.65;;;;;;;;;;4955378;28;24429;-51
2022/03/20 02:15:59;;;;;;;21.35;18.25;;;;;;;;;;4953205;28;24557;-51
2022/03/20 02:18:25;;;;;;;23.08;18.63;;;;;;;;;;4966622;28;24492;-50
2022/03/20 02:20:51;;;;;;;20.90;18.47;;;;;;;;;;4957254;28;24406;-51
2022/03/20 02:23:17;;;;;;;22.60;18.10;;;;;;;;;;4960047;28;24452;-52
2022/03/20 02:25:49;;;;;;;21.40;18.15;;;;;;;;;;4953101;28;24492;-51
2022/03/20 02:28:15;;;;;;;23.05;17.80;;;;;;;;;;4956598;28;25060;-51
2022/03/20 02:30:40;;;;;;;21.40;18.33;;;;;;;;;;4967439;28;24460;-50
2022/03/20 02:33:05;;;;;;;20.75;18.23;;;;;;;;;;4955969;28;24434;-51
2022/03/20 02:35:31;;;;;;;23.00;18.20;;;;;;;;;;4958615;28;24481;-52
2022/03/20 02:37:57;;;;;;;22.33;18.65;;;;;;;;;;4965716;28;24428;-51
2022/03/20 02:40:22;;;;;;;23.87;19.03;;;;;;;;;;4966737;28;24800;-52
2022/03/20 02:42:51;;;;;;;22.37;19.20;;;;;;;;;;4962191;28;24418;-51
2022/03/20 02:45:19;;;;;;;21.88;19.58;;;;;;;;;;4951081;28;24498;-51
2022/03/20 02:47:46;;;;;;;23.33;19.08;;;;;;;;;;4954422;28;24561;-51
2022/03/20 02:50:12;;;;;;;22.73;18.33;;;;;;;;;;4966460;28;24452;-51
2022/03/20 02:52:46;;;;;;;23.05;18.90;;;;;;;;;;4971497;28;24448;-50
2022/03/20 02:55:12;;;;;;;22.98;19.02;;;;;;;;;;4964935;28;24469;-50
2022/03/20 02:57:37;;;;;;;21.73;18.20;;;;;;;;;;4953997;28;24480;-52
2022/03/20 03:00:05;;;;;;;24.30;18.23;;;;;;;;;;4964310;28;24821;-49
2022/03/20 03:02:35;;;;;;;23.55;19.23;;;;;;;;;;4962850;28;24520;-50
2022/03/20 03:05:00;;;;;;;22.80;18.40;;;;;;;;;;4964873;28;24551;-50
2022/03/20 03:07:32;;;;;;;24.13;18.93;;;;;;;;;;4965609;28;24457;-50
2022/03/20 03:12:42;;;;;;;23.90;17.73;;;;;;;;;;4959746;28;24586;-51
2022/03/20 03:15:20;;;;;;;20.90;17.70;;;;;;;;;;4965100;28;24538;-51
2022/03/20 03:17:46;;;;;;;21.55;18.35;;;;;;;;;;4960207;28;25184;-51
2022/03/20 03:20:11;;;;;;;22.17;18.45;;;;;;;;;;4970884;28;24428;-50
2022/03/20 03:22:36;;;;;;;23.60;17.03;;;;;;;;;;4963747;28;24769;-52
2022/03/20 03:25:01;;;;;;;20.75;17.40;;;;;;;;;;4967074;28;25055;-50
2022/03/20 03:27:26;;;;;;;22.00;17.10;;;;;;;;;;4962503;28;24461;-49
2022/03/20 03:29:52;;;;;;;22.13;17.98;;;;;;;;;;4970180;28;24406;-50
2022/03/20 03:32:17;;;;;;;20.92;16.48;;;;;;;;;;4963581;28;24454;-50
2022/03/20 03:37:26;;;;;;;22.25;16.52;;;;;;;;;;4967945;28;24476;-50
2022/03/20 03:39:51;;;;;;;23.10;17.20;;;;;;;;;;4963983;28;24952;-50
2022/03/20 03:42:16;;;;;;;19.55;16.17;;;;;;;;;;4962880;28;25031;-50
2022/03/20 03:44:41;;;;;;;18.10;15.70;;;;;;;;;;4955860;28;25034;-50
2022/03/20 03:47:07;;;;;;;18.80;15.80;;;;;;;;;;4963412;28;25050;-51
2022/03/20 03:49:33;;;;;;;20.17;17.20;;;;;;;;;;4966886;28;25054;-51
2022/03/20 03:51:58;;;;;;;20.77;16.33;;;;;;;;;;4959258;28;24462;-52
2022/03/20 03:54:24;;;;;;;19.67;16.07;;;;;;;;;;4958445;28;25169;-51
2022/03/20 03:56:49;;;;;;;22.60;16.45;;;;;;;;;;4952706;28;24435;-51
2022/03/20 03:59:14;;;;;;;18.75;15.82;;;;;;;;;;4967007;28;24982;-51
2022/03/20 04:01:40;;;;;;;19.75;15.68;;;;;;;;;;4961800;28;25181;-51
2022/03/20 04:04:05;;;;;;;17.30;15.35;;;;;;;;;;4961324;28;24449;-51
2022/03/20 04:06:30;;;;;;;18.53;16.30;;;;;;;;;;4959668;28;24510;-51
2022/03/20 04:08:55;;;;;;;18.92;16.80;;;;;;;;;;4961241;28;24512;-51
2022/03/20 04:11:20;;;;;;;19.10;16.00;;;;;;;;;;4956276;28;24441;-50
2022/03/20 04:13:46;;;;;;;17.90;16.00;;;;;;;;;;4962905;28;24491;-50
2022/03/20 04:16:11;;;;;;;17.95;16.05;;;;;;;;;;4954908;28;24434;-50
2022/03/20 04:18:36;;;;;;;18.95;15.88;;;;;;;;;;4962664;28;24528;-50
2022/03/20 04:21:01;;;;;;;17.83;15.93;;;;;;;;;;4963119;28;24421;-50
2022/03/20 04:23:45;;;;;;;20.47;16.07;;;;;;;;;;4958370;28;24477;-51
2022/03/20 04:26:17;;;;;;;18.10;16.08;;;;;;;;;;4960309;28;24793;-50
2022/03/20 04:28:44;;;;;;;18.60;16.50;;;;;;;;;;4960648;28;24472;-50
2022/03/20 04:31:09;;;;;;;19.70;17.50;;;;;;;;;;4963468;28;24524;-50
2022/03/20 04:33:35;;;;;;;20.47;17.70;;;;;;;;;;4967238;28;24422;-50
2022/03/20 04:36:00;;;;;;;20.00;17.17;;;;;;;;;;4954509;28;24444;-50
2022/03/20 04:38:26;;;;;;;22.10;18.63;;;;;;;;;;4959350;28;24421;-50
2022/03/20 04:40:51;;;;;;;21.58;18.58;;;;;;;;;;4951909;28;24518;-52
2022/03/20 04:43:17;;;;;;;22.07;17.37;;;;;;;;;;4958451;28;24501;-50
2022/03/20 04:45:42;;;;;;;20.33;17.50;;;;;;;;;;4963073;28;24442;-50
2022/03/20 04:59:03;;;;;;;18.52;16.50;;;;;;;;;;4955583;28;24405;-50
2022/03/20 05:01:28;;;;;;;17.33;15.53;;;;;;;;;;4963961;28;24410;-51
2022/03/20 05:03:53;;;;;;;16.03;14.33;;;;;;;;;;4963170;28;24797;-50
2022/03/20 05:06:19;;;;;;;17.20;14.10;;;;;;;;;;4958965;28;24537;-51
2022/03/20 05:08:44;;;;;;;16.90;12.60;;;;;;;;;;4956826;28;24430;-50
2022/03/20 05:13:53;;;;;;;16.77;13.60;;;;;;;;;;4956406;28;24429;-50
2022/03/20 05:16:18;;;;;;;16.10;13.90;;;;;;;;;;4961909;28;25112;-51
2022/03/20 05:18:44;;;;;;;13.30;11.70;;;;;;;;;;4964961;28;24541;-49
2022/03/20 05:21:10;;;;;;;13.57;12.00;;;;;;;;;;4953420;28;24477;-49
2022/03/20 05:23:36;;;;;;;16.35;13.98;;;;;;;;;;4957943;28;24465;-50
2022/03/20 05:26:01;;;;;;;16.00;12.87;;;;;;;;;;4959037;28;24441;-50
2022/03/20 05:28:26;;;;;;;16.20;12.37;;;;;;;;;;4961314;28;24504;-50
2022/03/20 05:30:51;;;;;;;15.20;13.20;;;;;;;;;;4951229;28;24500;-51
2022/03/20 05:33:16;;;;;;;13.77;11.90;;;;;;;;;;4958021;28;24413;-50
2022/03/20 05:35:44;;;;;;;16.50;12.70;;;;;;;;;;4954983;28;25081;-50
2022/03/20 05:38:10;;;;;;;15.70;13.00;;;;;;;;;;4959532;28;24964;-50
2022/03/20 05:40:38;;;;;;;17.17;13.93;;;;;;;;;;4961442;28;24430;-50
2022/03/20 05:43:04;;;;;;;17.20;13.40;;;;;;;;;;4956144;28;24428;-50
2022/03/20 05:45:31;;;;;;;15.80;12.93;;;;;;;;;;4959654;28;25065;-50
2022/03/20 05:47:56;;;;;;;17.50;12.80;;;;;;;;;;4964904;28;24504;-49
2022/03/20 05:50:23;;;;;;;14.30;12.63;;;;;;;;;;4963312;28;24553;-50
2022/03/20 05:52:48;;;;;;;14.90;13.20;;;;;;;;;;4960909;28;24425;-50
2022/03/20 05:55:13;;;;;;;15.97;13.40;;;;;;;;;;4965616;28;24406;-49
2022/03/20 06:00:24;;;;;;;15.32;13.73;;;;;;;;;;4957705;28;24485;-50
2022/03/20 06:02:49;;;;;;;18.23;14.52;;;;;;;;;;4967835;28;24512;-49
2022/03/20 06:05:14;;;;;;;15.53;13.87;;;;;;;;;;4963036;28;25015;-50
2022/03/20 06:07:41;;;;;;;16.47;13.60;;;;;;;;;;4964289;28;24993;-50
2022/03/20 06:10:07;;;;;;;16.25;13.23;;;;;;;;;;4960943;28;24831;-50
2022/03/20 06:12:33;;;;;;;16.77;14.20;;;;;;;;;;4965463;28;24488;-49
2022/03/20 06:14:58;;;;;;;18.13;15.18;;;;;;;;;;4965393;28;24450;-50
2022/03/20 06:17:24;;;;;;;18.83;14.53;;;;;;;;;;4954726;28;24976;-50
2022/03/20 06:19:49;;;;;;;16.50;14.60;;;;;;;;;;4965241;28;24433;-50
2022/03/20 06:22:15;;;;;;;16.60;14.30;;;;;;;;;;4965693;28;24414;-50
2022/03/20 06:24:40;;;;;;;17.97;14.83;;;;;;;;;;4964675;28;24533;-50
2022/03/20 06:27:05;;;;;;;19.05;14.70;;;;;;;;;;4954646;28;24417;-51
2022/03/20 06:29:30;;;;;;;17.30;14.13;;;;;;;;;;4964360;28;24421;-52
2022/03/20 06:31:55;;;;;;;19.50;15.17;;;;;;;;;;4960174;28;24591;-51
2022/03/20 06:34:21;;;;;;;16.23;14.35;;;;;;;;;;4966457;28;24409;-51
2022/03/20 06:36:46;;;;;;;16.60;14.50;;;;;;;;;;4965178;28;24588;-51
2022/03/20 06:39:11;;;;;;;16.55;13.80;;;;;;;;;;4960886;28;24426;-52
2022/03/20 06:41:36;;;;;;;17.60;14.57;;;;;;;;;;4965575;28;24574;-51
2022/03/20 06:44:04;;;;;;;18.73;13.70;;;;;;;;;;4951003;28;24425;-51
2022/03/20 06:46:29;;;;;;;17.42;14.77;;;;;;;;;;4951934;28;24445;-50
2022/03/20 06:48:55;;;;;;;16.10;13.80;;;;;;;;;;4964085;28;24422;-50
2022/03/20 06:51:22;;;;;;;19.10;14.82;;;;;;;;;;4963721;28;24434;-50
2022/03/20 06:53:47;;;;;;;17.65;14.50;;;;;;;;;;4962257;28;24436;-50
2022/03/20 06:56:13;;;;;;;18.00;14.90;;;;;;;;;;4963075;28;24418;-50
2022/03/20 06:58:39;;;;;;;17.93;14.50;;;;;;;;;;4960602;28;24897;-50
2022/03/20 07:01:04;;;;;;;16.75;14.07;;;;;;;;;;4964197;28;24416;-51
2022/03/20 07:03:29;;;;;;;16.23;14.23;;;;;;;;;;4950489;28;24774;-50
2022/03/20 07:05:55;;;;;;;18.10;14.73;;;;;;;;;;4950633;28;24470;-50
2022/03/20 07:08:20;;;;;;;16.67;14.40;;;;;;;;;;4960048;28;24428;-51
2022/03/20 07:10:45;;;;;;;16.15;14.45;;;;;;;;;;4953961;28;24967;-51
2022/03/20 07:15:59;;;;;;;17.80;14.40;;;;;;;;;;4957816;28;24428;-51
2022/03/20 07:18:24;;;;;;;17.33;14.32;;;;;;;;;;4959734;28;24434;-50
2022/03/20 07:20:49;;;;;;;16.92;14.20;;;;;;;;;;4966786;28;24456;-50
2022/03/20 07:23:15;;;;;;;17.43;14.27;;;;;;;;;;4957653;28;24512;-50
2022/03/20 07:31:08;;;;;;;15.65;14.00;;;;;;;;;;4962681;28;24520;-51
2022/03/20 07:33:34;;;;;;;16.40;13.67;;;;;;;;;;4969533;28;25003;-51
2022/03/20 07:35:59;;;;;;;15.00;13.40;;;;;;;;;;4969978;28;24861;-51
2022/03/20 07:38:25;;;;;;;15.82;13.85;;;;;;;;;;4963208;28;24418;-51
2022/03/20 07:40:51;;;;;;;16.83;13.40;;;;;;;;;;4958635;28;24500;-51
2022/03/20 07:43:16;;;;;;;15.15;13.13;;;;;;;;;;4958604;28;24449;-50
2022/03/20 07:45:42;;;;;;;17.27;13.77;;;;;;;;;;4960578;28;24957;-51
2022/03/20 07:48:07;;;;;;;15.97;13.40;;;;;;;;;;4952479;28;24434;-54
2022/03/20 07:50:32;;;;;;;15.53;13.17;;;;;;;;;;4967164;28;24537;-51
2022/03/20 07:52:59;;;;;;;15.80;13.30;;;;;;;;;;4959078;28;24700;-51
2022/03/20 07:55:25;;;;;;;14.77;12.80;;;;;;;;;;4958987;28;24437;-51
2022/03/20 07:57:50;;;;;;;13.38;11.98;;;;;;;;;;4959586;28;24439;-50
2022/03/20 08:00:17;;;;;;;14.47;12.20;;;;;;;;;;4960964;28;24432;-51
2022/03/20 08:02:43;;;;;;;14.00;12.20;;;;;;;;;;4962081;28;24505;-51
2022/03/20 08:05:08;;;;;;;16.42;12.55;;;;;;;;;;4956869;28;26055;-51
2022/03/20 08:07:37;;;;;;;14.00;11.90;;;;;;;;;;4958697;28;24462;-51
2022/03/20 08:10:09;;;;;;;13.90;12.30;;;;;;;;;;4968760;28;24414;-51
2022/03/20 08:12:34;;;;;;;12.77;11.43;;;;;;;;;;4963769;28;24551;-51
2022/03/20 08:15:00;;;;;;;13.17;11.50;;;;;;;;;;4966193;28;24947;-51
2022/03/20 08:17:25;;;;;;;14.43;10.90;;;;;;;;;;4955006;28;24421;-50
2022/03/20 08:19:50;;;;;;;13.80;11.77;;;;;;;;;;4965796;28;24435;-50
2022/03/20 08:22:15;;;;;;;13.03;11.60;;;;;;;;;;4963050;28;24796;-50
2022/03/20 08:24:42;;;;;;;13.88;11.90;;;;;;;;;;4958469;28;24457;-51
2022/03/20 08:27:07;;;;;;;13.50;11.80;;;;;;;;;;4961609;28;24429;-51
2022/03/20 08:29:32;;;;;;;13.17;11.67;;;;;;;;;;4962656;28;24442;-50
2022/03/20 08:31:58;;;;;;;12.85;11.52;;;;;;;;;;4964386;28;25237;-51
2022/03/20 08:34:23;;;;;;;12.63;10.98;;;;;;;;;;4964593;28;24973;-51
2022/03/20 08:36:48;;;;;;;11.93;10.73;;;;;;;;;;4958909;28;24458;-50
2022/03/20 08:39:14;;;;;;;13.30;11.90;;;;;;;;;;4956636;28;24810;-50
2022/03/20 08:41:39;;;;;;;13.70;11.80;;;;;;;;;;4960343;28;24428;-50
2022/03/20 08:44:05;;;;;;;13.60;12.03;;;;;;;;;;4962060;28;24441;-51
2022/03/20 08:46:30;;;;;;;12.73;11.43;;;;;;;;;;4962489;28;24844;-51
2022/03/20 08:48:55;;;;;;;11.90;10.40;;;;;;;;;;4963138;28;24454;-50
2022/03/20 08:51:21;;;;;;;13.03;11.40;;;;;;;;;;4961184;28;24441;-51
2022/03/20 08:53:46;;;;;;;13.13;11.73;;;;;;;;;;4968960;28;25023;-50
2022/03/20 08:56:11;;;;;;;13.70;11.60;;;;;;;;;;4968456;28;24500;-50
2022/03/20 08:58:36;;;;;;;13.33;11.93;;;;;;;;;;4969284;28;25007;-50
2022/03/20 09:01:02;;;;;;;12.57;11.10;;;;;;;;;;4967837;28;24553;-51
2022/03/20 09:03:29;;;;;;;14.13;11.27;;;;;;;;;;4967704;28;24849;-51
2022/03/20 09:05:54;;;;;;;12.18;10.98;;;;;;;;;;4969055;28;24479;-51
2022/03/20 09:08:19;;;;;;;12.73;11.43;;;;;;;;;;4968691;28;25009;-50
2022/03/20 09:10:48;;;;;;;12.23;11.00;;;;;;;;;;4967610;28;24417;-50
2022/03/20 09:13:13;;;;;;;13.25;11.95;;;;;;;;;;4967975;28;24548;-50
2022/03/20 09:15:38;;;;;;;12.80;11.48;;;;;;;;;;4967671;28;25082;-51
2022/03/20 09:20:47;;;;;;;12.43;10.98;;;;;;;;;;4968071;28;24492;-50
2022/03/20 09:23:13;;;;;;;12.40;11.10;;;;;;;;;;4965644;28;24414;-51
2022/03/20 09:25:39;;;;;;;12.63;11.33;;;;;;;;;;4965788;28;24994;-51
2022/03/20 09:28:05;;;;;;;15.70;11.47;;;;;;;;;;4966277;28;24488;-50
2022/03/20 09:30:31;;;;;;;12.85;11.55;;;;;;;;;;4968525;28;24947;-51
2022/03/20 09:32:56;;;;;;;12.70;11.27;;;;;;;;;;4967661;28;24499;-51
2022/03/20 09:35:22;;;;;;;12.60;11.30;;;;;;;;;;4968940;28;24405;-51
2022/03/20 09:37:47;;;;;;;13.20;11.80;;;;;;;;;;4966665;28;24409;-51
2022/03/20 09:40:12;;;;;;;12.33;11.03;;;;;;;;;;4968913;28;24426;-51
2022/03/20 09:42:38;;;;;;;13.27;11.40;;;;;;;;;;4967238;28;24778;-50
2022/03/20 09:45:04;;;;;;;12.55;11.02;;;;;;;;;;4968653;28;24773;-50
2022/03/20 09:47:29;;;;;;;11.85;10.57;;;;;;;;;;4968258;28;25099;-50
2022/03/20 09:49:56;;;;;;;12.20;10.98;;;;;;;;;;4968505;28;24520;-51
2022/03/20 09:52:23;;;;;;;11.43;10.33;;;;;;;;;;4968304;28;24896;-49
2022/03/20 09:54:48;;;;;;;11.20;10.10;;;;;;;;;;4967528;28;25218;-50
2022/03/20 09:57:14;;;;;;;12.00;10.70;;;;;;;;;;4964589;28;25428;-50
2022/03/20 09:59:40;;;;;;;11.40;10.20;;;;;;;;;;4968957;28;24956;-51
2022/03/20 10:02:06;;;;;;;11.73;10.52;;;;;;;;;;4968768;28;24960;-51
2022/03/20 10:04:34;;;;;;;11.80;10.30;;;;;;;;;;4967399;28;24457;-51
2022/03/20 10:06:59;;;;;;;12.32;10.98;;;;;;;;;;4953152;28;24413;-51
2022/03/20 10:09:24;;;;;;;11.43;10.33;;;;;;;;;;4949117;28;24534;-51
2022/03/20 10:11:54;;;;;;;12.00;10.70;;;;;;;;;;4949061;28;24413;-52
2022/03/20 10:14:22;;;;;;;11.57;10.38;;;;;;;;;;4951063;28;24441;-51
2022/03/20 10:16:49;;;;;;;12.05;10.85;;;;;;;;;;4968159;28;24610;-50
2022/03/20 10:19:23;;;;;;;10.85;9.75;;;;;;;;;;4967899;28;24430;-51
2022/03/20 10:22:07;;;;;;;10.98;9.88;;;;;;;;;;4968768;28;24409;-50
2022/03/20 10:24:34;;;;;;;11.13;9.90;;;;;;;;;;4967242;28;24842;-51
2022/03/20 10:26:59;;;;;;;10.60;9.10;;;;;;;;;;4948826;28;24402;-50
2022/03/20 10:29:25;;;;;;;11.48;10.27;;;;;;;;;;4949543;28;24414;-51
2022/03/20 10:31:50;;;;;;;10.83;9.83;;;;;;;;;;4948580;28;24426;-51
2022/03/20 10:34:16;;;;;;;11.68;9.80;;;;;;;;;;4948925;28;24406;-52
2022/03/20 10:36:42;;;;;;;11.00;9.90;;;;;;;;;;4950746;28;24415;-50
2022/03/20 10:39:12;;;;;;;10.87;9.80;;;;;;;;;;4948820;28;24599;-51
2022/03/20 10:41:38;;;;;;;10.10;9.20;;;;;;;;;;4949081;28;24752;-51
2022/03/20 10:44:12;;;;;;;10.15;9.15;;;;;;;;;;4949254;28;24416;-50
2022/03/20 10:46:37;;;;;;;10.63;9.63;;;;;;;;;;4956293;28;24450;-50
2022/03/20 10:49:03;;;;;;;10.90;9.57;;;;;;;;;;4967355;28;24397;-50
2022/03/20 10:51:37;;;;;;;10.27;9.18;;;;;;;;;;4968316;28;24430;-51
2022/03/20 10:54:03;;;;;;;10.60;9.50;;;;;;;;;;4967998;28;24803;-52
2022/03/20 10:56:28;;;;;;;9.90;8.90;;;;;;;;;;4968295;28;24390;-51
2022/03/20 10:58:53;;;;;;;10.07;8.55;;;;;;;;;;4968144;28;24417;-51
2022/03/20 11:01:32;;;;;;;10.33;9.10;;;;;;;;;;4954615;28;24437;-50
2022/03/20 11:03:59;;;;;;;9.70;8.80;;;;;;;;;;4958809;28;24449;-50
2022/03/20 11:06:25;;;;;;;10.23;9.13;;;;;;;;;;4961730;28;24425;-50
2022/03/20 11:08:50;;;;;;;9.65;8.50;;;;;;;;;;4969671;28;24386;-50
2022/03/20 11:11:17;;;;;;;9.77;8.30;;;;;;;;;;4969313;28;24453;-50
2022/03/20 11:13:46;;;;;;;9.70;8.20;;;;;;;;;;4963028;28;24440;-50
2022/03/20 11:16:12;;;;;;;9.52;7.93;;;;;;;;;;4956570;28;24444;-50
2022/03/20 11:18:38;;;;;;;8.48;7.57;;;;;;;;;;4962912;28;24801;-52
2022/03/20 11:21:04;;;;;;;11.65;8.18;;;;;;;;;;4965752;28;24434;-51
2022/03/20 11:23:32;;;;;;;9.13;7.90;;;;;;;;;;4968656;28;24417;-51
2022/03/20 11:27:53;;;;;;;9.68;7.60;;;;;;;;;;5076013;27;24418;-50
2022/03/20 11:30:19;;;;;;;9.65;7.85;;;;;;;;;;5073027;28;24438;-51
2022/03/20 11:32:47;;;;;;;8.80;7.77;;;;;;;;;;5078088;28;24413;-51
2022/03/20 11:35:13;;;;;;;9.93;7.97;;;;;;;;;;5068560;28;25047;-51
2022/03/20 11:37:40;;;;;;;8.60;7.80;;;;;;;;;;5074584;28;24743;-50
2022/03/20 11:40:10;;;;;;;8.27;7.30;;;;;;;;;;5083395;28;24497;-51
2022/03/20 11:42:35;;;;;;;7.90;7.20;;;;;;;;;;5081469;28;24418;-51
2022/03/20 11:45:00;;;;;;;8.50;7.53;;;;;;;;;;5077832;28;24442;-50
2022/03/20 11:47:30;;;;;;;8.80;7.90;;;;;;;;;;5067128;28;24430;-49
2022/03/20 11:50:05;;;;;;;8.02;7.22;;;;;;;;;;5067581;28;24411;-50
2022/03/20 11:52:44;;;;;;;8.20;7.22;;;;;;;;;;5066861;28;24426;-50
2022/03/20 11:55:23;;;;;;;8.05;7.25;;;;;;;;;;5067360;27;24496;-49
2022/03/20 11:57:49;;;;;;;8.77;7.93;;;;;;;;;;5063642;28;25013;-49
2022/03/20 12:00:16;;;;;;;8.57;7.40;;;;;;;;;;5071505;28;24419;-50
2022/03/20 12:02:53;;;;;;;8.80;7.90;;;;;;;;;;5077671;28;24506;-50
2022/03/20 12:05:24;;;;;;;8.68;7.72;;;;;;;;;;5070074;28;24840;-50
2022/03/20 12:07:52;;;;;;;8.57;7.75;;;;;;;;;;5067667;28;24415;-50
2022/03/20 12:10:24;;;;;;;8.70;7.80;;;;;;;;;;5072119;28;24440;-51
2022/03/20 12:13:04;;;;;;;8.35;7.55;;;;;;;;;;5073072;28;25035;-52
2022/03/20 12:15:30;;;;;;;8.45;7.65;;;;;;;;;;5074645;28;24426;-52
2022/03/20 12:17:56;;;;;;;7.88;7.00;;;;;;;;;;5073355;28;24430;-51
2022/03/20 12:20:40;;;;;;;7.77;6.90;;;;;;;;;;5073612;28;24561;-51
2022/03/20 12:23:26;;;;;;;8.23;7.25;;;;;;;;;;5070132;28;24452;-51
2022/03/20 12:25:51;;;;;;;9.30;7.40;;;;;;;;;;5076716;28;24482;-52
2022/03/20 12:28:29;;;;;;;7.95;7.15;;;;;;;;;;5086731;28;24880;-51
2022/03/20 12:30:54;;;;;;;8.25;7.45;;;;;;;;;;5099900;28;24394;-50
2022/03/20 12:33:26;;;;;;;8.13;7.33;;;;;;;;;;5095152;28;24482;-51
2022/03/20 12:35:52;;;;;;;7.70;7.00;;;;;;;;;;5090276;28;24408;-50
2022/03/20 12:38:46;;;;;;;7.47;6.78;;;;;;;;;;5077537;28;24433;-50
2022/03/20 12:41:13;;;;;;;8.77;7.88;;;;;;;;;;5060190;28;24430;-51
2022/03/20 12:43:39;;;;;;;8.30;7.03;;;;;;;;;;5079575;28;24430;-51
2022/03/20 12:46:11;;;;;;;7.40;6.70;;;;;;;;;;5074628;28;24825;-52
2022/03/20 12:48:36;;;;;;;7.72;6.90;;;;;;;;;;5079678;28;24471;-52
2022/03/20 12:51:06;;;;;;;7.20;6.60;;;;;;;;;;5081484;28;24406;-51
2022/03/20 12:53:35;;;;;;;7.43;6.10;;;;;;;;;;5082863;28;24852;-51
2022/03/20 12:56:02;;;;;;;7.30;6.15;;;;;;;;;;5077288;27;24497;-50
2022/03/20 12:58:28;;;;;;;7.00;6.40;;;;;;;;;;5073338;28;24458;-50
2022/03/20 13:00:55;;;;;;;7.43;6.57;;;;;;;;;;5079389;28;24447;-51
2022/03/20 13:03:20;;;;;;;7.70;6.65;;;;;;;;;;5074883;28;24505;-49
2022/03/20 13:05:49;;;;;;;8.02;6.50;;;;;;;;;;5080957;28;24525;-50
2022/03/20 13:08:41;;;;;;;7.38;6.60;;;;;;;;;;5078264;28;25152;-50
2022/03/20 13:14:08;;;;;;;7.80;7.00;;;;;;;;;;5082970;28;24400;-51
2022/03/20 13:16:34;;;;;;;7.20;6.60;;;;;;;;;;5082675;28;24552;-50
2022/03/20 13:18:59;;;;;;;7.03;6.33;;;;;;;;;;5075543;28;24579;-51
2022/03/20 13:21:24;;;;;;;7.47;6.37;;;;;;;;;;5075647;28;24549;-50
2022/03/20 13:23:49;;;;;;;7.20;6.50;;;;;;;;;;5071826;28;25116;-51
2022/03/20 13:26:17;;;;;;;7.40;6.70;;;;;;;;;;5074049;28;24536;-50
2022/03/20 13:28:43;;;;;;;8.35;7.50;;;;;;;;;;5071031;28;24500;-52
2022/03/20 13:31:19;;;;;;;7.72;6.93;;;;;;;;;;5082940;28;24543;-51
2022/03/20 13:33:51;;;;;;;7.90;7.10;;;;;;;;;;5089352;28;24397;-50
2022/03/20 13:36:16;;;;;;;7.65;6.95;;;;;;;;;;5068560;28;24427;-51
2022/03/20 13:38:43;;;;;;;7.60;6.90;;;;;;;;;;5068134;28;24406;-51
2022/03/20 13:41:13;;;;;;;7.97;7.18;;;;;;;;;;5068747;28;25027;-51
2022/03/20 13:43:39;;;;;;;6.93;6.20;;;;;;;;;;5068263;28;24448;-51
2022/03/20 13:46:13;;;;;;;6.97;6.27;;;;;;;;;;5081447;28;24525;-51
2022/03/20 13:48:38;;;;;;;7.10;5.87;;;;;;;;;;5070096;28;24571;-51
2022/03/20 13:51:04;;;;;;;6.47;5.77;;;;;;;;;;5077672;28;24509;-51
2022/03/20 13:53:30;;;;;;;6.20;5.60;;;;;;;;;;5068283;28;24970;-51
2022/03/20 13:55:55;;;;;;;5.68;5.10;;;;;;;;;;5075178;28;24471;-51
2022/03/20 13:58:20;;;;;;;6.70;5.40;;;;;;;;;;5086549;28;24477;-51
2022/03/20 14:00:45;;;;;;;6.03;4.95;;;;;;;;;;5088314;28;24741;-51
2022/03/20 14:03:11;;;;;;;5.77;4.90;;;;;;;;;;5088508;28;24405;-50
2022/03/20 14:05:36;;;;;;;5.80;5.30;;;;;;;;;;5086217;28;24394;-50
2022/03/20 14:08:09;;;;;;;5.53;4.80;;;;;;;;;;5087940;28;24982;-50
2022/03/20 14:11:06;;;;;;;5.57;5.00;;;;;;;;;;5087718;28;25001;-50
2022/03/20 14:13:34;;;;;;;7.10;5.53;;;;;;;;;;5075578;28;24419;-51
2022/03/20 14:16:10;;;;;;;5.60;5.10;;;;;;;;;;5086452;28;24539;-50
2022/03/20 14:18:53;;;;;;;5.90;5.30;;;;;;;;;;5067245;28;24418;-49
2022/03/20 14:21:28;;;;;;;5.90;5.40;;;;;;;;;;5067203;28;24395;-50
2022/03/20 14:23:56;;;;;;;6.13;5.53;;;;;;;;;;5067858;28;24947;-50
2022/03/20 14:26:21;;;;;;;6.30;5.70;;;;;;;;;;5067211;28;24430;-51
2022/03/20 14:28:46;;;;;;;6.37;5.77;;;;;;;;;;5084483;28;24437;-50
2022/03/20 14:39:46;;;;;;;5.78;5.18;;;;;;;;;;5066896;28;24460;-50
2022/03/20 14:42:27;;;;;;;5.13;4.65;;;;;;;;;;5072614;28;24484;-51
2022/03/20 14:44:53;;;;;;;4.90;4.50;;;;;;;;;;5086411;28;24402;-50
2022/03/20 14:47:19;;;;;;;5.13;4.63;;;;;;;;;;5076590;28;24434;-51
2022/03/20 14:49:45;;;;;;;6.13;5.53;;;;;;;;;;5067226;28;24389;-50
2022/03/20 14:52:12;;;;;;;5.88;5.38;;;;;;;;;;5066404;28;24773;-50
2022/03/20 14:54:37;;;;;;;5.38;4.93;;;;;;;;;;5067335;28;24486;-50
2022/03/20 14:57:04;;;;;;;5.50;5.00;;;;;;;;;;5066614;28;24525;-50
2022/03/20 14:59:29;;;;;;;6.03;5.43;;;;;;;;;;5065542;28;24453;-51
2022/03/20 15:01:54;;;;;;;7.00;5.50;;;;;;;;;;5065509;28;24500;-51
2022/03/20 15:04:21;;;;;;;6.50;5.80;;;;;;;;;;5067031;28;24396;-50
2022/03/20 15:06:47;;;;;;;6.00;5.40;;;;;;;;;;5070815;28;24578;-51
2022/03/20 15:11:56;;;;;;;7.95;5.78;;;;;;;;;;5083483;28;24408;-51
2022/03/20 15:14:22;;;;;;;5.77;5.27;;;;;;;;;;5088738;28;24493;-50